createdAt,value
2023-08-18T01:16:16.610Z,18.20
2023-08-18T01:18:46.568Z,18.40
2023-08-18T01:21:16.659Z,18.30
2023-08-18T01:23:46.080Z,18.60
2023-08-18T01:26:14.636Z,17.80
2023-08-18T01:28:44.482Z,18.10
2023-08-18T01:31:15.775Z,18.20
2023-08-18T01:33:48.051Z,18.10
2023-08-18T01:36:20.558Z,18.10
2023-08-18T01:38:52.929Z,18.10
2023-08-18T01:41:24.955Z,18.10
2023-08-18T01:43:53.972Z,18.20
2023-08-18T01:48:50.931Z,18.10
2023-08-18T01:51:19.074Z,18.10
2023-08-18T01:53:47.198Z,18.30
2023-08-18T01:56:16.721Z,18.10
2023-08-18T01:58:44.974Z,18.10
2023-08-18T02:01:13.605Z,18.00
2023-08-18T02:03:42.390Z,18.00
2023-08-18T02:06:11.012Z,18.00
2023-08-18T02:08:39.595Z,18.10
2023-08-18T02:11:07.938Z,18.40
2023-08-18T02:13:37.373Z,17.90
2023-08-18T02:16:05.883Z,17.90
2023-08-18T02:18:34.309Z,17.90
2023-08-18T02:21:03.766Z,17.90
2023-08-18T02:23:32.058Z,17.80
2023-08-18T02:26:04.165Z,17.90
2023-08-18T02:28:32.646Z,17.90
2023-08-18T02:31:03.593Z,17.80
2023-08-18T02:33:31.851Z,18.00
2023-08-18T02:36:01.134Z,18.00
2023-08-18T02:38:29.911Z,18.00
2023-08-18T02:40:58.336Z,18.00
2023-08-18T02:43:26.933Z,18.60
2023-08-18T02:45:58.738Z,17.70
2023-08-18T02:48:29.701Z,18.00
2023-08-18T02:51:04.974Z,17.90
2023-08-18T02:53:33.269Z,17.90
2023-08-18T02:56:01.684Z,18.00
2023-08-18T02:58:29.632Z,18.10
2023-08-18T03:00:58.126Z,18.00
2023-08-18T03:03:26.234Z,18.00
2023-08-18T03:05:55.675Z,18.00
2023-08-18T03:08:23.881Z,18.00
2023-08-18T03:10:58.389Z,18.00
2023-08-18T03:13:26.724Z,18.10
2023-08-18T03:15:55.087Z,18.10
2023-08-18T03:18:23.203Z,18.10
2023-08-18T03:20:51.872Z,18.00
2023-08-18T03:23:21.796Z,18.00
2023-08-18T03:25:49.875Z,18.00
2023-08-18T03:28:18.291Z,18.00
2023-08-18T03:30:46.571Z,17.90
2023-08-18T03:33:14.756Z,17.90
2023-08-18T03:35:42.897Z,17.90
2023-08-18T03:38:10.971Z,18.00
2023-08-18T03:40:40.392Z,18.00
2023-08-18T03:43:08.795Z,17.90
2023-08-18T03:45:37.709Z,17.90
2023-08-18T03:48:06.391Z,17.80
2023-08-18T03:50:34.478Z,18.00
2023-08-18T03:53:04.263Z,17.90
2023-08-18T03:55:32.472Z,17.90
2023-08-18T03:58:02.202Z,17.90
2023-08-18T04:00:30.354Z,17.90
2023-08-18T04:02:58.837Z,17.70
2023-08-18T04:05:27.240Z,17.70
2023-08-18T04:07:56.014Z,17.70
2023-08-18T04:10:24.488Z,17.70
2023-08-18T04:12:52.568Z,17.60
2023-08-18T04:15:22.362Z,17.70
2023-08-18T04:17:50.440Z,17.70
2023-08-18T04:20:18.818Z,17.70
2023-08-18T04:22:47.097Z,17.70
2023-08-18T04:25:15.452Z,17.70
2023-08-18T04:27:43.580Z,17.70
2023-08-18T04:30:12.709Z,17.80
2023-08-18T04:32:42.277Z,17.80
2023-08-18T04:35:11.826Z,17.80
2023-08-18T04:37:39.877Z,17.90
2023-08-18T04:40:09.109Z,17.90
2023-08-18T04:42:37.162Z,17.90
2023-08-18T04:45:06.543Z,18.00
2023-08-18T04:47:34.866Z,18.00
2023-08-18T04:50:05.774Z,18.00
2023-08-18T04:52:33.875Z,18.00
2023-08-18T04:55:02.273Z,18.10
2023-08-18T04:57:30.355Z,18.10
2023-08-18T04:59:58.393Z,18.10
2023-08-18T05:02:28.170Z,18.10
2023-08-18T05:04:56.955Z,18.00
2023-08-18T05:07:27.839Z,18.00
2023-08-18T05:12:24.339Z,17.90
2023-08-18T05:19:50.181Z,18.10
2023-08-18T05:22:18.250Z,18.20
2023-08-18T05:24:49.186Z,18.30
2023-08-18T05:27:17.272Z,18.30
2023-08-18T05:29:45.379Z,18.30
2023-08-18T05:32:13.460Z,18.30
2023-08-18T05:34:41.649Z,18.30
2023-08-18T05:37:09.835Z,18.30
2023-08-18T05:39:37.894Z,18.30
2023-08-18T05:42:08.032Z,18.20
2023-08-18T05:49:35.120Z,18.20
2023-08-18T06:02:05.554Z,18.30
2023-08-18T06:04:33.870Z,18.90
2023-08-18T06:07:02.277Z,18.60
2023-08-18T06:09:30.535Z,18.50
2023-08-18T06:11:58.768Z,18.50
2023-08-18T06:14:27.259Z,18.70
2023-08-18T06:16:56.806Z,18.60
2023-08-18T06:19:25.272Z,18.50
2023-08-18T06:21:53.480Z,18.50
2023-08-18T06:24:21.567Z,18.80
2023-08-18T06:26:49.791Z,18.70
2023-08-18T06:29:17.942Z,18.50
2023-08-18T06:31:46.122Z,18.40
2023-08-18T06:34:27.558Z,18.60
2023-08-18T06:36:56.835Z,18.60
2023-08-18T06:39:25.166Z,18.80
2023-08-18T06:41:53.238Z,18.60
2023-08-18T06:46:50.615Z,18.70
2023-08-18T06:49:18.717Z,18.80
2023-08-18T06:51:48.413Z,18.80
2023-08-18T06:54:16.567Z,18.80
2023-08-18T06:56:45.095Z,18.80
2023-08-18T07:01:42.968Z,18.70
2023-08-18T07:04:12.225Z,18.70
2023-08-18T07:06:45.257Z,18.80
2023-08-18T07:11:43.817Z,18.80
2023-08-18T07:14:13.983Z,19.00
2023-08-18T07:16:42.092Z,19.10
2023-08-18T07:19:10.182Z,19.20
2023-08-18T07:21:38.298Z,19.20
2023-08-18T07:26:36.578Z,19.20
2023-08-18T07:29:05.704Z,19.20
2023-08-18T07:31:35.900Z,19.30
2023-08-18T07:34:04.768Z,19.30
2023-08-18T07:36:34.246Z,19.50
2023-08-18T07:44:03.782Z,19.40
2023-08-18T07:46:32.256Z,19.60
2023-08-18T07:51:28.866Z,19.60
2023-08-18T07:53:57.076Z,19.70
2023-08-18T07:56:25.808Z,19.50
2023-08-18T07:58:56.653Z,19.50
2023-08-18T08:03:59.040Z,19.50
2023-08-18T08:06:27.328Z,19.50
2023-08-18T08:11:24.558Z,19.70
2023-08-18T08:13:53.846Z,19.90
2023-08-18T08:21:24.727Z,20.20
2023-08-18T08:23:53.990Z,20.40
2023-08-18T08:26:24.403Z,20.50
2023-08-18T08:28:52.746Z,20.60
2023-08-18T08:31:21.135Z,20.80
2023-08-18T08:33:49.342Z,20.90
2023-08-18T08:36:18.925Z,21.20
2023-08-18T08:38:47.466Z,21.30
2023-08-18T08:43:45.618Z,22.00
2023-08-18T08:46:16.367Z,22.50
2023-08-18T08:48:48.528Z,23.00
2023-08-18T08:51:20.457Z,23.20
2023-08-18T08:53:52.860Z,23.30
2023-08-18T08:56:23.088Z,23.10
2023-08-18T08:58:53.635Z,23.30
2023-08-18T09:01:24.180Z,23.70
2023-08-18T09:03:53.378Z,23.60
2023-08-18T09:06:23.079Z,24.10
2023-08-18T09:08:51.280Z,24.70
2023-08-18T09:11:24.496Z,24.50
2023-08-18T09:13:52.844Z,24.70
2023-08-18T09:18:57.040Z,26.10
2023-08-18T09:21:27.135Z,26.60
2023-08-18T09:23:57.225Z,27.20
2023-08-18T09:26:25.408Z,27.20
2023-08-18T09:28:53.422Z,27.50
2023-08-18T09:31:21.895Z,27.60
2023-08-18T09:33:51.324Z,27.70
2023-08-18T09:36:19.833Z,28.00
2023-08-18T09:38:49.267Z,28.60
2023-08-18T09:41:17.812Z,28.80
2023-08-18T09:43:46.021Z,29.40
2023-08-18T09:46:17.383Z,30.30
2023-08-18T09:48:48.879Z,30.30
2023-08-18T09:51:22.218Z,31.10
2023-08-18T09:53:58.890Z,31.60
2023-08-18T09:56:32.359Z,31.80
2023-08-18T09:59:08.607Z,32.20
2023-08-18T10:01:38.299Z,31.80
2023-08-18T10:04:09.780Z,31.40
2023-08-18T10:06:40.361Z,32.20
2023-08-18T10:09:11.935Z,32.70
2023-08-18T10:11:52.080Z,32.80
2023-08-18T10:14:23.545Z,32.40
2023-08-18T10:16:53.892Z,32.50
2023-08-18T10:19:52.620Z,32.90
2023-08-18T10:22:22.170Z,33.30
2023-08-18T10:24:53.168Z,33.40
2023-08-18T10:27:49.046Z,33.80
2023-08-18T10:30:31.090Z,34.50
2023-08-18T10:33:05.110Z,33.70
2023-08-18T10:35:33.408Z,34.40
2023-08-18T10:38:04.116Z,33.90
2023-08-18T10:40:35.973Z,34.30
2023-08-18T10:43:09.619Z,34.60
2023-08-18T10:45:38.443Z,34.20
2023-08-18T10:48:09.105Z,34.40
2023-08-18T10:50:40.974Z,35.30
2023-08-18T10:53:12.684Z,35.80
2023-08-18T10:55:45.568Z,35.00
2023-08-18T10:58:16.107Z,34.70
2023-08-18T11:00:45.217Z,35.10
2023-08-18T11:03:14.934Z,35.00
2023-08-18T11:05:43.301Z,35.10
2023-08-18T11:08:12.067Z,34.50
2023-08-18T11:10:44.314Z,34.90
2023-08-18T11:13:22.796Z,35.90
2023-08-18T11:15:51.794Z,34.60
2023-08-18T11:18:21.727Z,35.30
2023-08-18T11:20:52.254Z,35.40
2023-08-18T11:23:20.753Z,35.60
2023-08-18T11:25:50.259Z,35.50
2023-08-18T11:28:19.527Z,34.80
2023-08-18T11:30:47.935Z,35.60
2023-08-18T11:33:16.498Z,36.20
2023-08-18T11:35:46.012Z,35.90
2023-08-18T11:38:14.316Z,35.10
2023-08-18T11:40:44.802Z,35.70
2023-08-18T11:43:15.623Z,36.10
2023-08-18T11:45:44.033Z,36.20
2023-08-18T11:48:14.907Z,35.80
2023-08-18T11:50:43.999Z,34.60
2023-08-18T11:53:12.625Z,34.50
2023-08-18T11:55:43.858Z,35.30
2023-08-18T11:58:15.982Z,35.90
2023-08-18T12:00:47.836Z,35.20
2023-08-18T12:03:23.789Z,35.40
2023-08-18T12:05:52.348Z,34.40
2023-08-18T12:08:20.658Z,34.40
2023-08-18T12:10:52.060Z,35.00
2023-08-18T12:13:20.828Z,35.90
2023-08-18T12:15:51.156Z,36.50
2023-08-18T12:18:19.862Z,35.60
2023-08-18T12:20:48.344Z,35.70
2023-08-18T12:23:16.478Z,35.70
2023-08-18T12:25:44.767Z,35.90
2023-08-18T12:28:12.854Z,36.20
2023-08-18T12:30:40.978Z,36.40
2023-08-18T12:33:10.770Z,35.40
2023-08-18T12:35:38.894Z,34.90
2023-08-18T12:38:08.975Z,34.40
2023-08-18T12:40:37.265Z,35.00
2023-08-18T12:43:05.824Z,34.40
2023-08-18T12:45:34.608Z,34.00
2023-08-18T12:48:04.462Z,34.20
2023-08-18T12:50:33.916Z,34.10
2023-08-18T12:53:02.223Z,34.10
2023-08-18T12:55:31.462Z,33.70
2023-08-18T12:58:00.897Z,33.70
2023-08-18T13:00:29.060Z,33.60
2023-08-18T13:02:57.210Z,32.90
2023-08-18T13:05:25.560Z,32.40
2023-08-18T13:07:55.181Z,31.20
2023-08-18T13:10:23.460Z,30.80
2023-08-18T13:12:51.602Z,30.50
2023-08-18T13:15:20.570Z,30.40
2023-08-18T13:17:48.937Z,30.10
2023-08-18T13:20:17.276Z,29.60
2023-08-18T13:22:45.455Z,29.50
2023-08-18T13:25:16.826Z,29.10
2023-08-18T13:27:45.952Z,28.80
2023-08-18T13:30:14.790Z,28.80
2023-08-18T13:32:43.001Z,28.90
2023-08-18T13:35:12.092Z,28.90
2023-08-18T13:37:40.906Z,28.70
2023-08-18T13:40:10.221Z,28.80
2023-08-18T13:42:39.672Z,28.80
2023-08-18T13:45:09.805Z,28.90
2023-08-18T13:47:38.187Z,28.90
2023-08-18T13:50:07.356Z,29.10
2023-08-18T13:52:35.648Z,29.00
2023-08-18T13:55:04.332Z,29.20
2023-08-18T13:57:32.986Z,28.60
2023-08-18T14:00:02.781Z,28.60
2023-08-18T14:02:31.176Z,28.60
2023-08-18T14:04:59.777Z,28.70
2023-08-18T14:07:29.191Z,28.70
2023-08-18T14:09:59.560Z,28.80
2023-08-18T14:12:28.330Z,28.80
2023-08-18T14:14:56.834Z,28.80
2023-08-18T14:17:40.912Z,28.80
2023-08-18T14:20:13.406Z,28.70
2023-08-18T14:22:43.825Z,28.70
2023-08-18T14:25:12.555Z,28.80
2023-08-18T14:27:41.624Z,28.80
2023-08-18T14:30:10.225Z,28.80
2023-08-18T14:32:40.110Z,28.80
2023-08-18T14:35:09.799Z,28.70
2023-08-18T14:37:39.412Z,28.60
2023-08-18T14:40:10.756Z,28.60
2023-08-18T14:42:39.953Z,28.70
2023-08-18T14:45:09.337Z,28.60
2023-08-18T14:47:40.425Z,28.60
2023-08-18T14:50:09.206Z,28.50
2023-08-18T14:52:37.491Z,28.30
2023-08-18T14:55:06.212Z,28.30
2023-08-18T14:57:35.246Z,28.30
2023-08-18T15:00:06.456Z,28.30
2023-08-18T15:02:35.236Z,28.20
2023-08-18T15:05:05.962Z,28.60
2023-08-18T15:07:34.532Z,28.30
2023-08-18T15:10:04.137Z,28.20
2023-08-18T15:12:32.664Z,28.10
2023-08-18T15:15:01.075Z,28.20
2023-08-18T15:17:29.393Z,28.10
2023-08-18T15:19:57.982Z,28.10
2023-08-18T15:22:27.530Z,28.10
2023-08-18T15:24:55.796Z,28.20
2023-08-18T15:27:23.934Z,28.10
2023-08-18T15:29:52.146Z,28.00
2023-08-18T15:32:20.238Z,28.10
2023-08-18T15:34:49.223Z,28.00
2023-08-18T15:37:17.755Z,28.00
2023-08-18T15:39:47.510Z,28.00
2023-08-18T15:42:16.057Z,28.00
2023-08-18T15:44:44.154Z,27.90
2023-08-18T15:47:12.206Z,27.90
2023-08-18T15:49:40.358Z,27.90
2023-08-18T15:52:08.465Z,27.90
2023-08-18T15:54:36.553Z,27.80
2023-08-18T15:57:06.114Z,27.80
2023-08-18T15:59:34.408Z,27.80
2023-08-18T16:02:02.470Z,27.80
2023-08-18T16:04:30.500Z,27.70
2023-08-18T16:06:58.615Z,27.70
2023-08-18T16:09:26.920Z,27.70
2023-08-18T16:11:55.061Z,27.70
2023-08-18T16:14:48.249Z,27.70
2023-08-18T16:17:14.062Z,27.70
2023-08-18T16:19:42.237Z,27.70
2023-08-18T16:22:10.453Z,27.70
2023-08-18T16:24:38.724Z,27.70
2023-08-18T16:27:07.138Z,27.80
2023-08-18T16:29:36.734Z,27.70
2023-08-18T16:32:05.799Z,27.70
2023-08-18T16:34:34.353Z,27.60
2023-08-18T16:37:02.443Z,27.60
2023-08-18T16:39:31.088Z,27.60
2023-08-18T16:42:00.312Z,27.60
2023-08-18T16:44:28.401Z,27.60
2023-08-18T16:46:59.108Z,27.60
2023-08-18T16:49:28.185Z,27.50
2023-08-18T16:51:57.455Z,27.50
2023-08-18T16:54:31.994Z,27.40
2023-08-18T16:57:00.296Z,27.50
2023-08-18T16:59:28.637Z,27.40
2023-08-18T17:01:58.133Z,27.40
2023-08-18T17:04:27.948Z,27.20
2023-08-18T17:06:56.542Z,27.20
2023-08-18T17:09:24.640Z,27.10
2023-08-18T17:11:52.793Z,27.10
2023-08-18T17:14:21.027Z,27.10
2023-08-18T17:16:49.136Z,27.00
2023-08-18T17:19:18.582Z,26.90
2023-08-18T17:21:46.780Z,26.80
2023-08-18T17:24:32.180Z,26.80
2023-08-18T17:27:00.271Z,26.70
2023-08-18T17:29:28.354Z,26.50
2023-08-18T17:31:56.496Z,26.50
2023-08-18T17:34:26.454Z,26.50
2023-08-18T17:36:55.286Z,26.40
2023-08-18T17:39:23.451Z,26.30
2023-08-18T17:41:51.637Z,26.20
2023-08-18T17:44:19.741Z,26.10
2023-08-18T17:46:48.506Z,26.00
2023-08-18T17:49:16.570Z,25.90
2023-08-18T17:51:49.476Z,25.90
2023-08-18T17:54:18.109Z,25.80
2023-08-18T17:59:15.192Z,25.50
2023-08-18T18:01:43.338Z,25.30
2023-08-18T18:04:11.700Z,25.00
2023-08-18T18:06:39.897Z,24.80
2023-08-18T18:09:09.538Z,24.80
2023-08-18T18:11:37.717Z,24.50
2023-08-18T18:14:06.248Z,24.90
2023-08-18T18:16:34.304Z,24.70
2023-08-18T18:19:02.584Z,24.60
2023-08-18T18:21:30.785Z,24.70
2023-08-18T18:23:58.874Z,24.50
2023-08-18T18:26:30.996Z,24.40
2023-08-18T18:28:59.815Z,24.40
2023-08-18T18:31:29.917Z,24.30
2023-08-18T18:33:58.715Z,24.20
2023-08-18T18:36:26.929Z,24.10
2023-08-18T18:38:54.999Z,24.00
2023-08-18T18:41:23.142Z,23.90
2023-08-18T18:43:52.983Z,23.70
2023-08-18T18:46:21.260Z,23.70
2023-08-18T18:48:49.365Z,23.40
2023-08-18T18:51:17.509Z,23.50
2023-08-18T18:53:45.692Z,23.70
2023-08-18T18:56:14.204Z,23.70
2023-08-18T18:58:42.290Z,23.40
2023-08-18T19:01:11.753Z,23.50
2023-08-18T19:03:40.470Z,23.30
2023-08-18T19:11:07.219Z,23.40
2023-08-18T19:13:35.390Z,23.30
2023-08-18T19:16:08.146Z,23.20
2023-08-18T19:18:38.423Z,23.30
2023-08-18T19:21:06.893Z,23.20
2023-08-18T19:26:06.277Z,23.40
2023-08-18T19:28:36.106Z,23.20
2023-08-18T19:31:04.997Z,23.10
2023-08-18T19:33:33.196Z,23.10
2023-08-18T19:36:02.781Z,23.20
2023-08-18T19:38:30.946Z,22.90
2023-08-18T19:40:59.737Z,23.20
2023-08-18T19:43:27.977Z,23.20
2023-08-18T19:45:57.731Z,23.10
2023-08-18T19:48:26.036Z,23.00
2023-08-18T19:50:54.908Z,23.00
2023-08-18T19:53:24.982Z,22.90
2023-08-18T19:55:53.274Z,23.00
2023-08-18T19:58:21.511Z,23.00
2023-08-18T20:00:50.089Z,22.80
2023-08-18T20:03:18.296Z,22.70
2023-08-18T20:05:46.747Z,22.60
2023-08-18T20:08:14.852Z,22.90
2023-08-18T20:10:44.298Z,22.90
2023-08-18T20:13:12.676Z,22.70
2023-08-18T20:15:40.776Z,22.80
2023-08-18T20:18:08.918Z,22.80
2023-08-18T20:20:36.955Z,22.50
2023-08-18T20:23:05.479Z,22.60
2023-08-18T20:25:33.609Z,22.60
2023-08-18T20:28:03.022Z,22.50
2023-08-18T20:30:31.210Z,22.70
2023-08-18T20:33:00.114Z,22.60
2023-08-18T20:35:28.611Z,22.80
2023-08-18T20:37:56.758Z,22.70
2023-08-18T20:40:24.906Z,22.70
2023-08-18T20:42:52.973Z,22.70
2023-08-18T20:45:22.581Z,22.60
2023-08-18T20:47:54.230Z,22.60
2023-08-18T20:50:22.721Z,22.60
2023-08-18T20:52:50.802Z,22.50
2023-08-18T20:55:19.330Z,22.60
2023-08-18T20:57:47.625Z,22.60
2023-08-18T21:00:17.383Z,22.70
2023-08-18T21:02:46.824Z,22.60
2023-08-18T21:05:14.881Z,22.70
2023-08-18T21:07:42.971Z,22.70
2023-08-18T21:10:12.854Z,22.80
2023-08-18T21:12:44.279Z,22.90
2023-08-18T21:15:13.177Z,22.90
2023-08-18T21:17:41.336Z,22.80
2023-08-18T21:20:15.088Z,22.80
2023-08-18T21:22:46.000Z,22.90
2023-08-18T21:25:16.399Z,22.90
2023-08-18T21:27:44.551Z,22.80
2023-08-18T21:30:15.258Z,22.80
2023-08-18T21:35:15.840Z,22.80
2023-08-18T21:40:14.157Z,22.80
2023-08-18T21:50:14.150Z,22.70
2023-08-18T21:52:42.391Z,22.70
2023-08-18T21:55:11.300Z,22.70
2023-08-18T21:57:39.445Z,22.70
2023-08-18T22:00:11.178Z,22.50
2023-08-18T22:02:39.296Z,22.50
2023-08-18T22:05:08.140Z,22.50
2023-08-18T22:07:37.546Z,22.50
2023-08-18T22:10:07.157Z,22.60
2023-08-18T22:12:35.289Z,22.50
2023-08-18T22:17:35.109Z,22.30
2023-08-18T22:20:07.347Z,22.20
2023-08-18T22:22:37.427Z,22.20
2023-08-18T22:25:06.462Z,22.40
2023-08-18T22:27:34.937Z,22.30
2023-08-18T22:30:03.786Z,22.20
2023-08-18T22:32:32.103Z,22.30
2023-08-18T22:35:00.662Z,21.90
2023-08-18T22:37:29.233Z,22.00
2023-08-18T22:39:58.857Z,22.20
2023-08-18T22:42:26.969Z,22.10
2023-08-18T22:44:55.185Z,22.10
2023-08-18T22:47:26.559Z,22.10
2023-08-18T22:52:25.134Z,22.00
2023-08-18T22:54:53.322Z,21.90
2023-08-18T23:02:20.550Z,21.90
2023-08-18T23:14:51.415Z,21.70
2023-08-18T23:24:52.240Z,21.70
2023-08-18T23:34:53.803Z,21.70
2023-08-18T23:39:55.164Z,21.70
2023-08-18T23:42:23.362Z,21.60
2023-08-18T23:44:52.835Z,21.00
2023-08-18T23:47:21.393Z,21.70
2023-08-18T23:49:49.549Z,21.70
2023-08-18T23:52:17.652Z,21.50
2023-08-18T23:54:45.869Z,21.70
2023-08-18T23:57:13.973Z,21.70
2023-08-18T23:59:42.436Z,21.70
